createdAt,value
2023-03-11T00:00:17.552Z,36.70
2023-03-11T00:05:24.243Z,31.20
2023-03-11T00:10:37.347Z,32.40
2023-03-11T00:15:40.972Z,34.78
2023-03-11T00:20:45.572Z,35.10
2023-03-11T00:25:48.596Z,33.05
2023-03-11T00:30:51.385Z,31.02
2023-03-11T00:35:53.875Z,33.10
2023-03-11T00:40:57.073Z,31.27
2023-03-11T00:45:59.753Z,33.38
2023-03-11T00:51:02.555Z,30.63
2023-03-11T00:56:14.061Z,31.42
2023-03-11T01:01:20.663Z,31.80
2023-03-11T01:06:30.170Z,35.85
2023-03-11T01:11:38.989Z,32.35
2023-03-11T01:16:46.701Z,32.40
2023-03-11T01:21:52.223Z,38.42
2023-03-11T01:26:55.156Z,39.13
2023-03-11T01:32:00.493Z,44.70
2023-03-11T01:37:04.490Z,46.60
2023-03-11T01:42:07.813Z,41.17
2023-03-11T01:47:11.142Z,45.95
2023-03-11T01:52:15.676Z,36.67
2023-03-11T01:57:25.586Z,38.95
2023-03-11T02:02:39.176Z,39.67
2023-03-11T02:07:43.250Z,37.17
2023-03-11T02:12:51.735Z,38.97
2023-03-11T02:18:00.437Z,39.92
2023-03-11T02:23:03.832Z,54.33
2023-03-11T02:28:11.522Z,52.85
2023-03-11T02:33:16.036Z,43.47
2023-03-11T02:38:21.441Z,39.78
2023-03-11T02:43:37.973Z,35.00
2023-03-11T02:48:43.510Z,28.70
2023-03-11T02:53:55.224Z,27.40
2023-03-11T02:58:58.873Z,32.95
2023-03-11T03:04:03.972Z,34.00
2023-03-11T03:09:08.636Z,31.40
2023-03-11T03:14:11.334Z,34.78
2023-03-11T03:19:15.260Z,34.15
2023-03-11T03:24:18.574Z,32.45
2023-03-11T03:29:21.454Z,34.08
2023-03-11T03:34:28.159Z,35.83
2023-03-11T03:39:33.860Z,34.08
2023-03-11T03:44:37.683Z,32.53
2023-03-11T03:49:41.263Z,32.20
2023-03-11T03:54:50.718Z,31.30
2023-03-11T03:59:53.980Z,30.58
2023-03-11T04:04:57.989Z,30.67
2023-03-11T04:10:01.488Z,33.08
2023-03-11T04:15:08.372Z,34.88
2023-03-11T04:20:12.919Z,32.35
2023-03-11T04:25:19.030Z,30.67
2023-03-11T04:30:22.513Z,32.67
2023-03-11T04:35:33.842Z,32.45
2023-03-11T04:40:40.614Z,34.60
2023-03-11T04:45:44.115Z,34.53
2023-03-11T04:50:48.096Z,36.72
2023-03-11T04:55:51.516Z,44.47
2023-03-11T05:00:55.788Z,49.92
2023-03-11T05:06:00.646Z,51.75
2023-03-11T05:11:04.514Z,106.85
2023-03-11T05:16:09.063Z,37.58
2023-03-11T05:21:11.917Z,26.58
2023-03-11T05:26:15.172Z,26.02
2023-03-11T05:31:19.808Z,31.10
2023-03-11T05:36:22.881Z,27.85
2023-03-11T05:41:26.214Z,27.10
2023-03-11T05:46:28.761Z,31.85
2023-03-11T05:51:32.292Z,30.60
2023-03-11T05:56:35.051Z,21.80
2023-03-11T06:01:38.522Z,24.25
2023-03-11T06:06:42.877Z,23.17
2023-03-11T06:11:46.839Z,29.20
2023-03-11T06:16:52.514Z,31.17
2023-03-11T06:21:56.217Z,45.47
2023-03-11T06:26:59.736Z,50.60
2023-03-11T06:32:05.312Z,37.53
2023-03-11T06:37:08.396Z,51.50
2023-03-11T06:42:12.152Z,63.88
2023-03-11T06:47:17.233Z,55.03
2023-03-11T06:52:21.827Z,49.83
2023-03-11T06:57:25.075Z,38.00
2023-03-11T07:02:31.510Z,35.03
2023-03-11T07:07:35.662Z,30.27
2023-03-11T07:12:39.826Z,26.25
2023-03-11T07:17:43.300Z,27.40
2023-03-11T07:22:46.948Z,28.85
2023-03-11T07:27:50.514Z,27.95
2023-03-11T07:32:52.994Z,30.40
2023-03-11T07:37:56.055Z,27.55
2023-03-11T07:42:58.698Z,35.15
2023-03-11T07:48:03.866Z,27.60
2023-03-11T07:53:06.605Z,36.17
2023-03-11T07:58:09.497Z,35.17
2023-03-11T08:03:13.386Z,37.90
2023-03-11T08:08:16.694Z,42.25
2023-03-11T08:13:20.122Z,45.45
2023-03-11T08:18:23.734Z,40.35
2023-03-11T08:23:26.679Z,42.05
2023-03-11T08:28:29.633Z,46.70
2023-03-11T08:33:32.626Z,44.72
2023-03-11T08:38:35.824Z,53.17
2023-03-11T08:43:38.826Z,48.08
2023-03-11T08:48:42.024Z,50.38
2023-03-11T08:53:44.706Z,57.55
2023-03-11T08:58:49.813Z,52.13
2023-03-11T09:03:52.796Z,50.00
2023-03-11T09:08:55.775Z,52.85
2023-03-11T09:13:58.564Z,55.40
2023-03-11T09:19:07.163Z,57.88
2023-03-11T09:24:10.297Z,61.00
2023-03-11T09:29:13.135Z,59.83
2023-03-11T09:34:16.361Z,60.83
2023-03-11T09:39:20.202Z,51.80
2023-03-11T09:44:41.938Z,52.72
2023-03-11T09:49:53.554Z,47.85
2023-03-11T09:54:56.374Z,41.75
2023-03-11T10:00:01.949Z,47.80
2023-03-11T10:05:28.362Z,47.40
2023-03-11T10:10:39.362Z,44.42
2023-03-11T10:16:12.505Z,46.80
2023-03-11T10:21:53.081Z,49.63
2023-03-11T10:27:02.608Z,45.55
2023-03-11T10:32:31.858Z,42.38
2023-03-11T10:37:49.272Z,49.78
2023-03-11T10:42:55.486Z,42.83
2023-03-11T10:47:58.545Z,47.50
2023-03-11T10:53:15.774Z,48.97
2023-03-11T10:58:22.449Z,54.67
2023-03-11T11:03:24.980Z,52.45
2023-03-11T11:08:28.224Z,55.25
2023-03-11T11:13:35.229Z,51.35
2023-03-11T11:18:50.910Z,50.20
2023-03-11T11:24:22.811Z,43.83
2023-03-11T11:29:27.205Z,43.83
2023-03-11T11:34:36.044Z,44.97
2023-03-11T11:39:52.167Z,45.58
2023-03-11T11:45:13.971Z,60.75
2023-03-11T11:50:37.706Z,45.58
2023-03-11T11:55:49.012Z,44.17
2023-03-11T12:01:20.652Z,45.50
2023-03-11T12:06:35.710Z,62.42
2023-03-11T12:11:56.477Z,54.67
2023-03-11T12:17:04.028Z,55.83
2023-03-11T12:22:28.972Z,55.67
2023-03-11T12:32:44.559Z,44.55
2023-03-11T12:37:57.404Z,39.05
2023-03-11T12:43:00.591Z,40.13
2023-03-11T12:48:28.424Z,34.63
2023-03-11T12:53:46.952Z,31.35
2023-03-11T12:59:10.770Z,28.70
2023-03-11T13:04:37.902Z,35.08
2023-03-11T13:09:41.343Z,33.58
2023-03-11T13:14:44.448Z,30.55
2023-03-11T13:19:49.667Z,29.67
2023-03-11T13:24:53.080Z,31.92
2023-03-11T13:30:19.734Z,28.25
2023-03-11T13:35:42.367Z,30.33
2023-03-11T13:40:46.795Z,33.50
2023-03-11T13:46:07.704Z,25.63
2023-03-11T13:51:19.994Z,25.77
2023-03-11T13:56:31.896Z,26.83
2023-03-11T14:01:34.629Z,32.20
2023-03-11T14:06:37.523Z,30.23
2023-03-11T14:11:48.037Z,26.08
2023-03-11T14:16:52.076Z,33.92
2023-03-11T14:21:57.380Z,28.52
2023-03-11T14:27:03.580Z,26.73
2023-03-11T14:32:33.213Z,27.35
2023-03-11T14:37:38.747Z,25.02
2023-03-11T14:47:47.419Z,28.80
2023-03-11T14:53:15.599Z,27.15
2023-03-11T14:58:35.611Z,31.42
2023-03-11T15:03:41.876Z,29.33
2023-03-11T15:08:53.511Z,34.15
2023-03-11T15:14:20.383Z,36.60
2023-03-11T15:19:30.318Z,33.90
2023-03-11T15:24:36.170Z,31.88
2023-03-11T15:29:40.249Z,35.78
2023-03-11T15:34:43.455Z,24.90
2023-03-11T15:39:48.705Z,24.58
2023-03-11T15:44:55.323Z,18.70
2023-03-11T15:50:27.313Z,16.98
2023-03-11T15:55:33.281Z,20.13
2023-03-11T16:00:54.020Z,21.50
2023-03-11T16:05:56.709Z,22.55
2023-03-11T16:11:00.111Z,20.27
2023-03-11T16:16:04.742Z,21.85
2023-03-11T16:21:16.405Z,19.27
2023-03-11T16:26:19.874Z,18.08
2023-03-11T16:31:22.778Z,16.55
2023-03-11T16:36:25.589Z,16.95
2023-03-11T16:41:29.908Z,16.38
2023-03-11T16:46:32.881Z,11.82
2023-03-11T16:51:38.480Z,12.25
2023-03-11T16:56:42.118Z,14.98
2023-03-11T17:01:44.881Z,10.73
2023-03-11T17:06:47.734Z,12.63
2023-03-11T17:11:50.906Z,12.85
2023-03-11T17:16:53.726Z,12.02
2023-03-11T17:21:58.116Z,9.75
2023-03-11T17:27:02.077Z,9.40
2023-03-11T17:32:07.018Z,15.40
2023-03-11T17:37:10.522Z,10.52
2023-03-11T17:42:13.629Z,10.23
2023-03-11T17:47:20.431Z,9.85
2023-03-11T17:52:33.674Z,9.25
2023-03-11T17:57:45.135Z,10.30
2023-03-11T18:02:50.540Z,11.80
2023-03-11T18:07:55.768Z,11.20
2023-03-11T18:12:58.729Z,13.05
2023-03-11T18:18:01.759Z,11.38
2023-03-11T18:23:06.139Z,9.57
2023-03-11T18:28:09.497Z,9.38
2023-03-11T18:33:13.670Z,8.63
2023-03-11T18:38:16.989Z,9.23
2023-03-11T18:43:19.899Z,9.00
2023-03-11T18:48:23.402Z,9.68
2023-03-11T18:53:27.006Z,9.63
2023-03-11T18:58:30.142Z,7.50
2023-03-11T19:03:33.129Z,7.45
2023-03-11T19:08:35.747Z,5.88
2023-03-11T19:13:47.789Z,7.30
2023-03-11T19:18:54.176Z,6.75
2023-03-11T19:23:58.079Z,6.70
2023-03-11T19:29:00.809Z,7.28
2023-03-11T19:34:03.923Z,9.63
2023-03-11T19:39:06.994Z,7.38
2023-03-11T19:44:09.676Z,7.32
2023-03-11T19:49:12.708Z,9.40
2023-03-11T19:54:16.653Z,11.73
2023-03-11T19:59:19.634Z,11.48
2023-03-11T20:04:24.860Z,10.38
2023-03-11T20:09:27.756Z,9.52
2023-03-11T20:14:36.769Z,8.25
2023-03-11T20:19:44.619Z,9.40
2023-03-11T20:24:50.457Z,7.00
2023-03-11T20:29:53.877Z,5.28
2023-03-11T20:34:59.430Z,6.28
2023-03-11T20:40:03.034Z,8.63
2023-03-11T20:45:07.341Z,6.57
2023-03-11T20:50:16.414Z,7.30
2023-03-11T20:55:23.754Z,6.72
2023-03-11T21:00:26.821Z,7.68
2023-03-11T21:05:30.031Z,10.20
2023-03-11T21:10:32.922Z,8.63
2023-03-11T21:15:36.620Z,6.47
2023-03-11T21:20:42.754Z,6.65
2023-03-11T21:30:48.600Z,4.97
2023-03-11T21:35:56.384Z,8.20
2023-03-11T21:41:11.652Z,4.88
2023-03-11T21:46:17.811Z,6.68
2023-03-11T21:51:21.883Z,6.45
2023-03-11T21:56:26.052Z,5.70
2023-03-11T22:01:31.315Z,8.30
2023-03-11T22:06:36.704Z,5.88
2023-03-11T22:11:43.984Z,7.93
2023-03-11T22:16:50.371Z,7.28
2023-03-11T22:21:54.421Z,6.70
2023-03-11T22:26:57.740Z,5.40
2023-03-11T22:32:01.629Z,5.47
2023-03-11T22:37:04.982Z,8.75
2023-03-11T22:42:07.905Z,7.65
2023-03-11T22:47:13.470Z,8.07
2023-03-11T22:52:17.277Z,9.75
2023-03-11T22:57:21.404Z,8.43
2023-03-11T23:02:24.528Z,7.55
2023-03-11T23:07:28.145Z,8.23
2023-03-11T23:12:31.952Z,10.00
2023-03-11T23:17:36.297Z,7.15
2023-03-11T23:22:41.330Z,6.50
2023-03-11T23:27:47.025Z,7.78
2023-03-11T23:32:51.463Z,10.15
2023-03-11T23:37:54.048Z,10.27
2023-03-11T23:42:57.968Z,13.73
2023-03-11T23:48:04.006Z,10.43
2023-03-11T23:53:06.726Z,8.65
2023-03-11T23:58:09.881Z,9.15
